createdAt,value
2019-03-26T08:10:21.202Z,4.00
2019-03-26T09:24:31.030Z,6.20
2019-03-26T09:39:21.007Z,5.90
2019-03-26T09:44:17.784Z,6.10
2019-03-26T09:46:46.361Z,6.30
2019-03-26T09:51:43.151Z,6.60
2019-03-26T09:54:11.712Z,6.90
2019-03-26T09:56:40.253Z,6.90
2019-03-26T09:59:08.821Z,6.90
2019-03-26T10:06:33.989Z,6.70
2019-03-26T10:09:02.566Z,6.60
2019-03-26T10:11:32.136Z,6.60
2019-03-26T10:14:00.696Z,6.70
2019-03-26T10:18:58.400Z,6.50
2019-03-26T10:21:26.945Z,6.80
2019-03-26T10:26:23.809Z,6.70
2019-03-26T10:28:52.425Z,6.70
2019-03-26T10:31:21.128Z,6.80
2019-03-26T10:33:49.675Z,6.80
2019-03-26T10:43:42.912Z,6.80
2019-03-26T10:46:11.489Z,7.00
2019-03-26T10:48:40.038Z,7.00
2019-03-26T10:53:36.897Z,7.20
2019-03-26T10:56:05.541Z,7.20
2019-03-26T10:58:34.109Z,7.30
2019-03-26T11:03:31.210Z,7.50
2019-03-26T11:05:59.829Z,7.20
2019-03-26T11:08:28.393Z,7.40
2019-03-26T11:10:57.012Z,7.20
2019-03-26T11:13:25.581Z,7.30
2019-03-26T11:15:54.220Z,7.50
2019-03-26T11:18:22.770Z,7.40
2019-03-26T11:21:01.875Z,7.20
2019-03-26T11:23:21.605Z,7.50
2019-03-26T11:25:50.174Z,7.50
2019-03-26T11:28:18.741Z,7.60
2019-03-26T11:30:47.280Z,7.60
2019-03-26T11:35:44.065Z,7.60
2019-03-26T11:38:12.687Z,7.60
2019-03-26T11:40:41.248Z,7.80
2019-03-26T11:43:09.802Z,7.80
2019-03-26T11:45:38.373Z,7.90
2019-03-26T11:53:03.478Z,7.70
2019-03-26T11:55:32.098Z,7.80
2019-03-26T11:58:00.660Z,7.80
2019-03-26T12:03:05.090Z,8.20
2019-03-26T12:05:33.639Z,8.10
2019-03-26T12:08:02.217Z,8.40
2019-03-26T12:10:30.762Z,8.10
2019-03-26T12:12:59.338Z,8.30
2019-03-26T12:15:27.949Z,8.00
2019-03-26T12:17:56.609Z,8.20
2019-03-26T12:20:25.162Z,8.30
2019-03-26T12:22:53.738Z,8.30
2019-03-26T12:25:22.441Z,8.50
2019-03-26T12:27:51.082Z,8.50
2019-03-26T12:30:22.697Z,8.90
2019-03-26T12:32:51.282Z,9.60
2019-03-26T12:35:28.136Z,9.40
2019-03-26T12:37:57.753Z,8.80
2019-03-26T12:45:22.922Z,8.20
2019-03-26T12:47:51.501Z,8.10
2019-03-26T12:50:20.041Z,8.10
2019-03-26T12:52:48.609Z,7.90
2019-03-26T12:55:17.150Z,8.10
2019-03-26T12:57:45.726Z,8.20
2019-03-26T13:00:14.505Z,8.30
2019-03-26T13:02:43.077Z,8.20
2019-03-26T13:05:11.761Z,8.20
2019-03-26T13:07:40.336Z,8.40
2019-03-26T13:10:13.805Z,8.70
2019-03-26T13:20:06.208Z,9.00
2019-03-26T13:22:34.856Z,8.70
2019-03-26T13:25:05.038Z,8.50
2019-03-26T13:27:33.609Z,8.50
2019-03-26T13:30:02.157Z,8.40
2019-03-26T13:32:30.732Z,8.50
2019-03-26T13:34:59.274Z,8.60
2019-03-26T13:39:56.198Z,8.30
2019-03-26T13:42:24.814Z,8.30
2019-03-26T13:44:53.394Z,8.40
2019-03-26T13:47:21.928Z,8.40
2019-03-26T13:49:50.510Z,8.40
2019-03-26T13:57:15.645Z,8.30
2019-03-26T13:59:44.227Z,8.50
2019-03-26T14:02:12.774Z,8.80
2019-03-26T14:04:41.345Z,9.40
2019-03-26T14:07:09.881Z,8.90
2019-03-26T14:09:38.463Z,9.10
2019-03-26T14:14:35.254Z,9.70
2019-03-26T14:17:05.610Z,9.30
2019-03-26T14:19:34.015Z,9.00
2019-03-26T14:22:02.554Z,8.60
2019-03-26T14:24:31.138Z,9.10
2019-03-26T14:26:59.752Z,8.50
2019-03-26T14:29:28.334Z,8.50
2019-03-26T14:36:53.341Z,9.40
2019-03-26T14:39:21.942Z,9.40
2019-03-26T14:41:50.482Z,8.80
2019-03-26T14:44:19.059Z,8.90
2019-03-26T14:49:15.854Z,8.80
2019-03-26T14:51:44.398Z,9.30
2019-03-26T14:54:12.969Z,8.90
2019-03-26T14:56:41.515Z,8.60
2019-03-26T15:01:38.440Z,8.60
2019-03-26T15:04:07.182Z,8.50
2019-03-26T15:06:35.726Z,8.50
2019-03-26T15:11:33.789Z,8.50
2019-03-26T15:14:02.358Z,9.20
2019-03-26T15:16:30.892Z,9.30
2019-03-26T15:21:27.690Z,8.60
2019-03-26T15:26:24.533Z,8.70
2019-03-26T15:28:53.052Z,8.70
2019-03-26T15:31:21.623Z,9.30
2019-03-26T15:33:50.167Z,8.80
2019-03-26T15:41:21.607Z,8.50
2019-03-26T15:46:13.702Z,8.30
2019-03-26T15:48:42.240Z,8.30
2019-03-26T15:51:10.885Z,8.40
2019-03-26T15:53:39.429Z,8.50
2019-03-26T15:56:08.075Z,8.30
2019-03-26T15:58:36.614Z,8.40
2019-03-26T16:01:05.330Z,8.50
2019-03-26T16:03:33.873Z,8.50
2019-03-26T16:06:02.518Z,8.50
2019-03-26T16:08:31.060Z,8.30
2019-03-26T16:10:59.635Z,8.20
2019-03-26T16:13:28.173Z,8.10
2019-03-26T16:18:24.966Z,8.20
2019-03-26T16:20:53.602Z,8.30
2019-03-26T16:23:22.150Z,8.20
2019-03-26T16:25:50.720Z,8.70
2019-03-26T16:30:47.504Z,7.90
2019-03-26T16:33:16.053Z,7.90
2019-03-26T16:35:44.626Z,8.00
2019-03-26T16:38:13.171Z,8.00
2019-03-26T16:40:41.819Z,8.00
2019-03-26T16:45:38.601Z,8.10
2019-03-26T16:48:07.285Z,7.80
2019-03-26T16:50:35.844Z,7.60
2019-03-26T16:53:04.453Z,7.60
2019-03-26T16:55:33.021Z,7.30
2019-03-26T16:58:01.571Z,7.30
2019-03-26T17:00:31.399Z,7.30
2019-03-26T17:07:57.189Z,7.20
2019-03-26T17:10:25.762Z,7.70
2019-03-26T17:12:54.306Z,7.20
2019-03-26T17:15:22.951Z,7.40
2019-03-26T17:17:51.494Z,7.10
2019-03-26T17:22:48.341Z,6.60
2019-03-26T17:25:16.987Z,6.60
2019-03-26T17:27:45.527Z,6.70
2019-03-26T17:30:14.338Z,6.60
2019-03-26T17:32:42.881Z,6.60
2019-03-26T17:35:11.595Z,6.50
2019-03-26T17:40:08.531Z,6.80
2019-03-26T17:42:37.073Z,6.30
2019-03-26T17:45:06.482Z,6.90
2019-03-26T17:47:35.024Z,6.30
2019-03-26T17:52:33.085Z,6.20
2019-03-26T17:55:01.629Z,6.10
2019-03-26T17:59:58.415Z,6.60
2019-03-26T18:02:26.984Z,6.10
2019-03-26T18:04:55.770Z,6.10
2019-03-26T18:07:24.346Z,6.00
2019-03-26T18:09:52.890Z,6.20
2019-03-26T18:12:30.794Z,6.30
2019-03-26T18:14:51.652Z,6.20
2019-03-26T18:19:48.445Z,6.10
2019-03-26T18:22:17.017Z,6.50
2019-03-26T18:24:45.566Z,6.20
2019-03-26T18:27:14.141Z,6.00
2019-03-26T18:29:42.754Z,6.10
2019-03-26T18:32:11.321Z,6.20
2019-03-26T18:37:08.112Z,6.20
2019-03-26T18:39:36.689Z,6.50
2019-03-26T18:42:05.296Z,6.20
2019-03-26T18:44:33.866Z,6.00
2019-03-26T18:47:02.414Z,5.90
2019-03-26T18:49:30.980Z,5.90
2019-03-26T18:51:59.525Z,6.10
2019-03-26T18:54:28.104Z,6.20
2019-03-26T18:56:56.641Z,6.20
2019-03-26T18:59:25.223Z,6.20
2019-03-26T19:01:53.834Z,6.20
2019-03-26T19:04:22.410Z,5.90
2019-03-26T19:06:50.953Z,6.00
2019-03-26T19:09:19.537Z,6.10
2019-03-26T19:11:48.105Z,6.20
2019-03-26T19:14:16.651Z,6.20
2019-03-26T19:16:45.221Z,6.30
2019-03-26T19:19:13.760Z,6.40
2019-03-26T19:26:38.790Z,6.00
2019-03-26T19:29:07.333Z,6.00
2019-03-26T19:31:35.993Z,6.10
2019-03-26T19:34:04.524Z,6.10
2019-03-26T19:36:33.097Z,6.20
2019-03-26T19:39:01.639Z,6.20
2019-03-26T19:41:30.225Z,6.10
2019-03-26T19:43:58.771Z,6.00
2019-03-26T19:46:27.354Z,6.10
2019-03-26T19:48:55.876Z,6.00
2019-03-26T19:51:24.529Z,6.10
2019-03-26T19:53:53.061Z,6.10
2019-03-26T19:56:21.628Z,6.20
2019-03-26T19:58:50.182Z,6.10
2019-03-26T20:01:18.749Z,6.00
2019-03-26T20:03:47.285Z,5.90
2019-03-26T20:06:15.858Z,6.20
2019-03-26T20:11:15.295Z,6.10
2019-03-26T20:13:42.833Z,6.10
2019-03-26T20:18:39.625Z,6.10
2019-03-26T20:21:08.261Z,6.00
2019-03-26T20:26:05.154Z,6.50
2019-03-26T20:28:33.781Z,5.90
2019-03-26T20:33:30.565Z,6.00
2019-03-26T20:50:50.161Z,5.90
2019-03-26T20:53:18.734Z,5.90
2019-03-26T20:58:17.182Z,5.90
2019-03-26T21:08:10.515Z,5.80
2019-03-26T21:10:39.193Z,5.80
2019-03-26T21:13:07.913Z,5.80
2019-03-26T21:15:36.460Z,5.90
2019-03-26T21:20:33.465Z,5.90
2019-03-26T21:23:02.045Z,5.80
2019-03-26T21:25:30.591Z,5.80
2019-03-26T21:35:23.912Z,5.90
2019-03-26T21:37:52.487Z,5.70
2019-03-26T21:40:21.165Z,5.80
2019-03-26T21:42:49.738Z,5.80
2019-03-26T21:45:21.361Z,5.70
2019-03-26T21:47:50.007Z,5.80
2019-03-26T21:50:18.633Z,5.80
2019-03-26T21:52:47.186Z,5.80
2019-03-26T21:55:15.873Z,5.90
2019-03-26T22:00:13.002Z,5.70
2019-03-26T22:02:41.581Z,5.70
2019-03-26T22:05:10.562Z,5.70
2019-03-26T22:07:39.129Z,5.50
2019-03-26T22:10:08.020Z,5.70
2019-03-26T22:20:02.822Z,5.70
2019-03-26T22:24:59.614Z,5.80
2019-03-26T22:27:28.189Z,5.60
2019-03-26T22:47:14.590Z,5.30
2019-03-26T23:09:29.214Z,4.70
2019-03-26T23:19:22.538Z,4.90
2019-03-26T23:34:12.404Z,4.70
2019-03-26T23:36:40.953Z,4.70
2019-03-26T23:44:07.713Z,4.70
